Terminal Aerodrome Forecast
Issued by NWS Brownsville, TX

Home | Current Version | Previous Version | Text Only | Print | Product List | Glossary On
Versions: 1 2 3 4 5 6 7 8 9 10 11 12 13 14 15
610
FTUS44 KBRO 222339
TAFMFE
TAF
KMFE 222339Z 2300/2324 05014G22KT P6SM BKN015
     FM230200 02011KT P6SM SCT025
      TEMPO 2302/2304 BKN025
     FM230500 01007KT P6SM SKC
     FM232100 04009G16KT P6SM SKC=

USA.gov is the U.S. government's official web portal to all federal, state and local government web resources and services.